• Terra Properties Inc
  • Software Answer


Nearby METAR Reports


KEDC - Austin Exec, Texas, USA
Distance from station: SW 16mi, 25km
Updated: Fri, 19-Jan-2018 3:35am CST
Overcast
Overcast
 Wind from calm
Wind: Calm
Temperature: 37°F , 3°C
Dew Point: 25°F , -4°C
Humidity: 60%
Barometer: 30.29 inHg , 1025.7 hPa
Clouds: Overcast
Visibility: 10 miles , 16 km
Cloud details: Partly Cloudy 2100 ft
Overcast 2700 ft
2018/01/19 09:35 KEDC 190935Z AUTO 00000KT 10SM SCT021 OVC027 03/M04 A3029 RMK AO2
KGTU - Georgetown, Texas, USA
Distance from station: WNW 17mi, 28km
Updated: Fri, 19-Jan-2018 2:56am CST
Overcast
Overcast
 Wind from SSE
Wind: SSE 6 mph , 9 km/h
Temperature: 39°F , 4°C
Wind Chill: 35°F , 2°C
Dew Point: 19°F , -7°C
Humidity: 45%
Barometer: 30.29 inHg , 1025.7 hPa
Clouds: Overcast
Visibility: 10 miles , 16 km
Cloud details: Overcast 2100 ft
2018/01/19 08:56 KGTU 190856Z AUTO 16005KT 10SM OVC021 04/M07 A3029 RMK AO2 SLP264 T00441067 58018
 
KATT - Austin/Mabry, Texas, USA
Distance from station: SW 28mi, 45km
Updated: Fri, 19-Jan-2018 2:51am CST
Overcast
Overcast
 Wind from SSW
Wind: SSW 3 mph , 6 km/h
Temperature: 39°F , 4°C
Dew Point: 21°F , -6°C
Humidity: 48%
Barometer: 30.30 inHg , 1026.1 hPa
Clouds: Overcast
Visibility: 10 miles , 16 km
Cloud details: Mostly Cloudy 2100 ft
Overcast 2800 ft
2018/01/19 08:51 KATT 190851Z AUTO 20003KT 10SM BKN021 OVC028 04/M06 A3030 RMK AO2 SLP267 T00441056 58016
KAUS - Austin, Texas, USA
Distance from station: SSW 32mi, 51km
Updated: Fri, 19-Jan-2018 2:53am CST
Overcast
Overcast
 Wind from S
Wind: S 6 mph , 9 km/h
Temperature: 39°F , 4°C
Wind Chill: 35°F , 2°C
Dew Point: 27°F , -3°C
Humidity: 61%
Barometer: 30.30 inHg , 1026.1 hPa
Clouds: Overcast
Visibility: 10 miles , 16 km
Cloud details: Mostly Cloudy 2200 ft
Overcast 2800 ft
2018/01/19 08:53 KAUS 190853Z 19005KT 10SM BKN022 OVC028 04/M03 A3030 RMK AO2 SLP268 T00441033 58015
 
KRYW - Lago Vista, Texas, USA
Distance from station: W 33mi, 54km
Updated: Fri, 19-Jan-2018 3:35am CST
Overcast
Overcast
 
Temperature: 41°F , 5°C
Dew Point: 23°F , -5°C
Humidity: 49%
Barometer: 30.26 inHg , 1024.7 hPa
Clouds: Overcast
Visibility: 10 miles , 16 km
Cloud details: Overcast 1200 ft
2018/01/19 09:35 KRYW 190935Z AUTO 10SM OVC012 05/M05 A3026 RMK AO2 T00451055
KILE - Killeen Muni, Texas, USA
Distance from station: NNW 37mi, 59km
Updated: Fri, 19-Jan-2018 2:56am CST
Overcast
Overcast
 Wind from S
Wind: S 10 mph , 17 km/h
Temperature: 39°F , 4°C
Wind Chill: 32°F , 0°C
Dew Point: 19°F , -7°C
Humidity: 45%
Barometer: 30.27 inHg , 1025.1 hPa
Clouds: Overcast
Visibility: 10 miles , 16 km
Cloud details: Overcast 3300 ft
2018/01/19 08:56 KILE 190856Z AUTO 18009KT 10SM OVC033 04/M07 A3027 RMK AO2 SLP273 T00391067 56019
 
KTPL - Temple/Miller, Texas, USA
Distance from station: N 38mi, 61km
Updated: Fri, 19-Jan-2018 2:51am CST
Overcast
Overcast
 Wind from S
Wind: S 9 mph , 15 km/h
Temperature: 37°F , 3°C
Wind Chill: 30°F , -1°C
Dew Point: 21°F , -6°C
Humidity: 52%
Barometer: 30.29 inHg , 1025.7 hPa
Clouds: Overcast
Visibility: 10 miles , 16 km
Cloud details: Overcast 3500 ft
2018/01/19 08:51 KTPL 190851Z AUTO 17008KT 10SM OVC035 03/M06 A3029 RMK AO2 SLP275 T00281061 56016
KGYB - Giddings-Lee, Texas, USA
Distance from station: SE 39mi, 62km
Updated: Fri, 19-Jan-2018 3:35am CST
Overcast
Overcast
 Wind from calm
Wind: Calm
Barometer: 30.32 inHg , 1026.8 hPa
Clouds: Overcast
Visibility: 10 miles , 16 km
Cloud details: Overcast 3200 ft
2018/01/19 09:35 KGYB 190935Z AUTO 00000KT 10SM OVC032 A3032 RMK AO2
 
KGRK - Gray/Ft Hood, Texas, USA
Distance from station: NW 42mi, 67km
Updated: Fri, 19-Jan-2018 2:58am CST
Overcast
Overcast
 Wind from SSE
Wind: SSE 9 mph , 15 km/h
Temperature: 37°F , 3°C
Wind Chill: 30°F , -1°C
Dew Point: 19°F , -7°C
Humidity: 48%
Barometer: 30.25 inHg , 1024.4 hPa
Clouds: Overcast
Visibility: 10 miles , 16 km
Cloud details: Overcast 2600 ft
2018/01/19 08:58 KGRK 190858Z AUTO 16008KT 10SM OVC026 03/M07 A3025 RMK AO2 SLP250 T00341071 56018
KHLR - Ft Hood/Killeen, Texas, USA
Distance from station: NNW 42mi, 67km
Updated: Fri, 19-Jan-2018 2:58am CST
Overcast
Overcast
 Wind from S
Wind: S 8 mph , 13 km/h
Temperature: 39°F , 4°C
Wind Chill: 33°F , 1°C
Dew Point: 19°F , -7°C
Humidity: 45%
Barometer: 30.23 inHg , 1023.7 hPa
Clouds: Overcast
Visibility: 10 miles , 16 km
Cloud details: Overcast 2700 ft
2018/01/19 08:58 KHLR 190858Z AUTO 18007KT 10SM OVC027 04/M07 A3023 RMK AO2 SLP240 T00391073 56018
 
KRWV - Caldwell, Texas, USA
Distance from station: E 43mi, 69km
Updated: Fri, 19-Jan-2018 3:35am CST
Overcast
Overcast
 Wind from SSE
Wind: SSE 5 mph , 7 km/h
Temperature: 37°F , 3°C
Wind Chill: 33°F , 1°C
Dew Point: 23°F , -5°C
Humidity: 56%
Barometer: 30.32 inHg , 1026.8 hPa
Clouds: Overcast
Visibility: 10 miles , 16 km
Cloud details: Overcast 3200 ft
2018/01/19 09:35 KRWV 190935Z AUTO 16004KT 10SM OVC032 03/M05 A3032 RMK AO2 T00281045
KBMQ - Burnet, Texas, USA
Distance from station: WNW 50mi, 80km
Updated: Fri, 19-Jan-2018 2:53am CST
Overcast
Overcast
 Wind from SSW
Wind: SSW 6 mph , 9 km/h
Temperature: 39°F , 4°C
Wind Chill: 35°F , 2°C
Dew Point: 19°F , -7°C
Humidity: 45%
Barometer: 30.27 inHg , 1025.1 hPa
Clouds: Overcast
Visibility: 10 miles , 16 km
Cloud details: Overcast 2500 ft
2018/01/19 08:53 KBMQ 190853Z AUTO 20005KT 10SM OVC025 04/M07 A3027 RMK AO2 SLP252 T00391067 58016